»·PEaware :: ATN3324 KSEA-KSLC

ATN3324 :: KSEA-KSLC

FLIGHT INFORMATION

Flight Status: Arrived
Operator:
Air Transport International
More flights by this operator :: More flights under this callsign
Pilot: Thomas S. (17015)
Aircraft: BOEING 767-300
(B763)
More flights by this aircraft type
Origin: KSEA Seattle-Tacoma Intl
United States
Destination: KSLC Salt Lake City Intl
United States
More flights between these airports :: More routes between these airports
Route: SUMMA2 BKE J54 HOVEL Q154 BYI BEARR5
File this flight plan on PilotEdge
Remarks: RMK / SIMBRIEF
Altitude:
(Current/Filed)
35,000ft
Speed:
(Current/Filed)
456kts
Departed: 07-Nov-20 08:16 AM
Arrived: 07-Nov-20 09:49 AM
Distance/Time
Traveled:
596nm/1:33
Distance/Time
To Go:
Arrived

Flight Plot

Page will automatically refresh every two minutes.

Flight plan parsing failed; only flown route is shown


Map Options




Map Legend


Flown Route
Filed Route
Departure Airport
Arrival Airport
Navaid (VOR, NDB)
Fix

Horizontal Profiles

Position Reports

Time Latitude Longitude Heading Altitude Ground
Speed
07-Nov-20 07:24 47.462459 -122.300065 359 481ft 0kts
07-Nov-20 07:25 47.462459 -122.300065 359 481ft 0kts
07-Nov-20 07:26 47.462459 -122.300065 359 481ft 0kts
07-Nov-20 07:27 47.462459 -122.300065 359 481ft 0kts
07-Nov-20 07:28 47.462459 -122.300065 359 481ft 0kts
07-Nov-20 07:29 47.462459 -122.300065 359 481ft 0kts
07-Nov-20 07:29 47.462459 -122.300065 359 481ft 0kts
07-Nov-20 07:31 47.462459 -122.300065 359 481ft 0kts
07-Nov-20 07:32 47.462459 -122.300065 359 481ft 0kts
07-Nov-20 07:32 47.462459 -122.300065 359 481ft 0kts
07-Nov-20 07:34 47.462459 -122.300065 359 481ft 0kts
07-Nov-20 07:34 47.462459 -122.300065 359 481ft 0kts
07-Nov-20 07:35 47.462459 -122.300065 359 481ft 0kts
07-Nov-20 07:36 47.462459 -122.300065 359 481ft 0kts
07-Nov-20 07:37 47.462459 -122.300065 359 481ft 0kts
07-Nov-20 07:38 47.462459 -122.300065 359 481ft 0kts
07-Nov-20 07:39 47.462459 -122.300065 359 481ft 0kts
07-Nov-20 07:40 47.462459 -122.300065 359 481ft 0kts
07-Nov-20 07:41 47.462459 -122.300065 359 481ft 0kts
07-Nov-20 07:42 47.462459 -122.300065 359 481ft 0kts
07-Nov-20 07:43 47.462459 -122.300065 359 481ft 0kts
07-Nov-20 07:44 47.462459 -122.300065 359 481ft 0kts
07-Nov-20 07:45 47.462459 -122.300065 359 481ft 0kts
07-Nov-20 07:46 47.462459 -122.300065 359 481ft 0kts
07-Nov-20 07:47 47.462459 -122.300065 359 481ft 0kts
07-Nov-20 07:48 47.462459 -122.300065 359 481ft 0kts
07-Nov-20 07:49 47.462459 -122.300065 359 481ft 0kts
07-Nov-20 07:50 47.462459 -122.300065 359 481ft 0kts
07-Nov-20 07:51 47.462459 -122.300065 359 481ft 0kts
07-Nov-20 07:52 47.462459 -122.300065 359 481ft 0kts
07-Nov-20 07:53 47.462459 -122.300065 359 481ft 0kts
07-Nov-20 07:54 47.462459 -122.300065 359 481ft 0kts
07-Nov-20 07:55 47.462459 -122.300065 359 481ft 0kts
07-Nov-20 07:56 47.462459 -122.300065 359 481ft 0kts
07-Nov-20 07:57 47.462459 -122.300065 359 481ft 0kts
07-Nov-20 07:58 47.462459 -122.300065 359 481ft 0kts
07-Nov-20 07:59 47.462459 -122.300065 359 481ft 0kts
07-Nov-20 08:00 47.462459 -122.300065 359 481ft 0kts
07-Nov-20 08:01 47.462459 -122.300065 359 481ft 0kts
07-Nov-20 08:02 47.462459 -122.300065 359 481ft 0kts
07-Nov-20 08:03 47.462459 -122.300065 359 481ft 0kts
07-Nov-20 08:04 47.462459 -122.300065 359 481ft 0kts
07-Nov-20 08:05 47.462459 -122.300065 359 481ft 0kts
07-Nov-20 08:06 47.462459 -122.300065 359 481ft 0kts
07-Nov-20 08:07 47.462379 -122.300065 0 481ft 2kts
07-Nov-20 08:08 47.461847 -122.299970 320 481ft 2kts
07-Nov-20 08:09 47.461698 -122.299481 270 481ft 0kts
07-Nov-20 08:10 47.461698 -122.299481 270 481ft 0kts
07-Nov-20 08:11 47.461698 -122.299481 270 481ft 0kts
07-Nov-20 08:12 47.461741 -122.302123 280 481ft 11kts
07-Nov-20 08:13 47.463084 -122.305589 333 481ft 10kts
07-Nov-20 08:14 47.462533 -122.307786 181 481ft 22kts
07-Nov-20 08:15 47.431386 -122.307984 181 1017ft 162kts
07-Nov-20 08:16 47.382635 -122.319060 181 2081ft 211kts
07-Nov-20 08:17 47.316681 -122.315506 178 4187ft 253kts
07-Nov-20 08:18 47.244164 -122.306709 161 6795ft 270kts
07-Nov-20 08:19 47.172472 -122.265537 162 9357ft 283kts
07-Nov-20 08:20 47.092038 -122.224980 163 10788ft 339kts
07-Nov-20 08:21 46.997683 -122.177819 164 13016ft 371kts
07-Nov-20 08:22 46.899583 -122.128847 164 15492ft 386kts
07-Nov-20 08:23 46.804333 -122.081316 164 17674ft 398kts
07-Nov-20 08:24 46.688659 -122.023636 163 19871ft 417kts
07-Nov-20 08:25 46.595009 -121.928585 119 21931ft 428kts
07-Nov-20 08:26 46.534105 -121.776331 116 23836ft 440kts
07-Nov-20 08:27 46.471682 -121.619550 116 25447ft 458kts
07-Nov-20 08:28 46.406367 -121.456461 116 26991ft 475kts
07-Nov-20 08:29 46.338981 -121.289209 116 28402ft 492kts
07-Nov-20 08:30 46.268544 -121.115509 116 29854ft 505kts
07-Nov-20 08:31 46.198840 -120.944643 117 31566ft 505kts
07-Nov-20 08:32 46.126307 -120.767982 117 33174ft 500kts
07-Nov-20 08:33 46.055129 -120.595702 117 33776ft 497kts
07-Nov-20 08:34 45.984604 -120.426095 116 33782ft 492kts
07-Nov-20 08:35 45.915798 -120.261516 117 33778ft 491kts
07-Nov-20 08:36 45.845796 -120.095118 118 33932ft 490kts
07-Nov-20 08:37 45.775491 -119.929000 118 34752ft 487kts
07-Nov-20 08:38 45.705361 -119.764284 118 34760ft 483kts
07-Nov-20 08:39 45.635270 -119.600553 118 34762ft 481kts
07-Nov-20 08:40 45.565568 -119.438671 118 34763ft 478kts
07-Nov-20 08:41 45.497574 -119.281657 119 34761ft 474kts
07-Nov-20 08:42 45.428261 -119.122491 119 34762ft 472kts
07-Nov-20 08:43 45.358832 -118.963958 120 34748ft 469kts
07-Nov-20 08:44 45.289975 -118.807599 120 34708ft 467kts
07-Nov-20 08:45 45.221272 -118.652454 120 34701ft 465kts
07-Nov-20 08:46 45.151961 -118.496788 120 34701ft 463kts
07-Nov-20 08:47 45.084078 -118.345154 121 34701ft 462kts
07-Nov-20 08:48 45.014808 -118.191259 121 34705ft 460kts
07-Nov-20 08:49 44.949431 -118.046768 121 34706ft 458kts
07-Nov-20 08:50 44.879285 -117.892479 123 34675ft 447kts
07-Nov-20 08:51 44.799540 -117.756069 137 34661ft 449kts
07-Nov-20 08:52 44.707942 -117.636859 137 34661ft 447kts
07-Nov-20 08:53 44.615895 -117.518663 137 34661ft 447kts
07-Nov-20 08:54 44.524383 -117.401786 137 34662ft 445kts
07-Nov-20 08:55 44.433438 -117.286150 138 34657ft 444kts
07-Nov-20 08:56 44.346348 -117.164555 125 34657ft 444kts
07-Nov-20 08:57 44.276798 -117.022893 125 34636ft 442kts
07-Nov-20 08:58 44.207523 -116.881561 126 34625ft 440kts
07-Nov-20 08:59 44.138544 -116.741397 126 34623ft 438kts
07-Nov-20 09:00 44.069742 -116.602247 127 34623ft 436kts
07-Nov-20 09:01 44.000584 -116.463047 127 34622ft 434kts
07-Nov-20 09:02 43.932772 -116.327205 128 34621ft 432kts
07-Nov-20 09:03 43.865166 -116.192410 128 34627ft 432kts
07-Nov-20 09:04 43.796555 -116.056236 128 34624ft 432kts
07-Nov-20 09:05 43.727870 -115.920529 128 34618ft 430kts
07-Nov-20 09:06 43.658813 -115.784735 128 34616ft 430kts
07-Nov-20 09:07 43.588315 -115.653188 130 34617ft 428kts
07-Nov-20 09:08 43.516517 -115.522272 131 34616ft 429kts
07-Nov-20 09:09 43.444567 -115.391629 131 34616ft 427kts
07-Nov-20 09:11 43.373316 -115.262818 132 34613ft 425kts
07-Nov-20 09:12 43.301902 -115.134286 132 34614ft 424kts
07-Nov-20 09:13 43.230345 -115.006046 132 34619ft 424kts
07-Nov-20 09:14 43.158962 -114.878677 133 34618ft 423kts
07-Nov-20 09:15 43.086836 -114.750537 133 34613ft 421kts
07-Nov-20 09:16 43.015851 -114.624963 133 34600ft 420kts
07-Nov-20 09:17 42.943968 -114.498343 133 34599ft 419kts
07-Nov-20 09:18 42.871990 -114.372097 134 34613ft 417kts
07-Nov-20 09:19 42.800828 -114.247810 134 34611ft 415kts
07-Nov-20 09:20 42.729599 -114.123922 135 34606ft 413kts
07-Nov-20 09:21 42.658358 -114.000534 135 34597ft 412kts
07-Nov-20 09:22 42.587798 -113.878762 135 34591ft 408kts
07-Nov-20 09:23 42.509825 -113.770881 142 34588ft 402kts
07-Nov-20 09:24 42.430020 -113.664433 142 34584ft 402kts
07-Nov-20 09:25 42.351979 -113.560408 142 33084ft 388kts
07-Nov-20 09:26 42.275272 -113.458552 142 31487ft 387kts
07-Nov-20 09:27 42.198004 -113.356262 143 29801ft 384kts
07-Nov-20 09:28 42.122173 -113.256287 143 28181ft 376kts
07-Nov-20 09:29 42.048573 -113.159575 143 26589ft 370kts
07-Nov-20 09:29 41.987377 -113.079394 144 25248ft 362kts
07-Nov-20 09:31 41.904081 -112.970666 143 23450ft 354kts
07-Nov-20 09:32 41.833545 -112.878922 143 22023ft 348kts
07-Nov-20 09:32 41.776236 -112.804573 143 20816ft 344kts
07-Nov-20 09:34 41.696710 -112.701743 143 19122ft 336kts
07-Nov-20 09:34 41.641592 -112.630697 143 17950ft 333kts
07-Nov-20 09:35 41.574766 -112.544792 142 16758ft 324kts
07-Nov-20 09:36 41.509499 -112.461128 142 16009ft 322kts
07-Nov-20 09:37 41.444414 -112.377973 141 15174ft 320kts
07-Nov-20 09:38 41.380239 -112.296201 142 14339ft 318kts
07-Nov-20 09:39 41.316014 -112.214604 142 13574ft 315kts
07-Nov-20 09:40 41.252720 -112.134415 141 12864ft 312kts
07-Nov-20 09:41 41.187025 -112.059819 146 11814ft 305kts
07-Nov-20 09:42 41.112702 -112.012364 173 11001ft 298kts
07-Nov-20 09:43 41.033032 -112.003160 173 8947ft 287kts
07-Nov-20 09:44 40.956699 -111.994289 174 7472ft 254kts
07-Nov-20 09:45 40.887095 -111.986191 174 5938ft 225kts
07-Nov-20 09:46 40.833635 -111.979939 176 4781ft 154kts
07-Nov-20 09:47 40.793165 -111.975319 175 4239ft 117kts
07-Nov-20 09:48 40.781389 -111.974390 196 4238ft 23kts
07-Nov-20 09:49 40.780642 -111.974798 209 4238ft 0kts
07-Nov-20 09:50 40.781005 -111.976047 353 4238ft 14kts
07-Nov-20 09:51 40.784982 -111.976488 355 4238ft 15kts
07-Nov-20 09:52 40.789678 -111.977052 355 4238ft 15kts
07-Nov-20 09:53 40.794151 -111.977566 354 4238ft 18kts
07-Nov-20 09:54 40.799615 -111.978201 355 4238ft 20kts
07-Nov-20 09:55 40.801574 -111.980360 344 4238ft 12kts
07-Nov-20 09:56 40.802586 -111.982508 354 4238ft 0kts
07-Nov-20 09:57 40.802586 -111.982508 355 4238ft 0kts
07-Nov-20 09:58 40.802586 -111.982508 355 4238ft 0kts

Navigation Log

Ident Type
Flight plan parsing failed, navigation log unavailable